Time;durP1;ratioP1;P1;durP2;ratioP2;P2;SDS_P1;SDS_P2;PMS_P1;PMS_P2;Temp;Humidity;BMP_temperature;BMP_pressure;BME280_temperature;BME280_humidity;BME280_pressure;Samples;Min_cycle;Max_cycle;Signal;HPM_P1;HPM_P2
2022/07/04 00:00:05;;;;;;;8.25;3.95;;;18.00;99.90;;;;;;5032038;28;20029;-53
2022/07/04 00:02:31;;;;;;;20.15;3.67;;;18.00;99.90;;;;;;5045720;28;20496;-54
2022/07/04 00:04:57;;;;;;;18.65;3.53;;;18.00;99.90;;;;;;5052980;28;20086;-53
2022/07/04 00:07:23;;;;;;;12.10;3.78;;;17.90;99.90;;;;;;5052622;28;20112;-53
2022/07/04 00:09:48;;;;;;;11.23;4.03;;;17.80;99.90;;;;;;5052185;28;20036;-53
2022/07/04 00:12:14;;;;;;;13.75;3.83;;;17.80;99.90;;;;;;5052188;28;20249;-54
2022/07/04 00:14:40;;;;;;;9.68;3.70;;;17.80;99.90;;;;;;5052221;28;20041;-55
2022/07/04 00:17:06;;;;;;;12.05;4.57;;;17.70;99.90;;;;;;5049854;28;20035;-56
2022/07/04 00:19:32;;;;;;;12.73;3.67;;;17.70;99.90;;;;;;5052589;28;20464;-53
2022/07/04 00:21:58;;;;;;;19.17;3.92;;;17.80;99.90;;;;;;5052220;28;20035;-56
2022/07/04 00:24:24;;;;;;;9.35;3.63;;;17.80;99.90;;;;;;5051906;28;20013;-51
2022/07/04 00:26:49;;;;;;;14.38;4.38;;;17.80;99.90;;;;;;5052239;28;20517;-51
2022/07/04 00:29:15;;;;;;;11.50;4.78;;;17.80;99.90;;;;;;5052056;28;20029;-53
2022/07/04 00:31:41;;;;;;;10.82;4.10;;;17.60;99.90;;;;;;5049559;28;20342;-54
2022/07/04 00:34:07;;;;;;;9.82;4.43;;;17.60;99.90;;;;;;5051965;28;20033;-57
2022/07/04 00:36:33;;;;;;;11.32;3.78;;;17.60;99.90;;;;;;5041992;28;20025;-54
2022/07/04 00:38:58;;;;;;;8.05;4.10;;;17.60;99.90;;;;;;5031960;28;20528;-53
2022/07/04 00:41:24;;;;;;;15.93;5.07;;;17.60;99.90;;;;;;5031481;28;20029;-52
2022/07/04 00:44:04;;;;;;;6.10;4.07;;;17.60;99.90;;;;;;5031078;28;20534;-52
2022/07/04 00:46:30;;;;;;;5.50;4.00;;;17.60;99.90;;;;;;5030931;28;20026;-55
2022/07/04 00:48:57;;;;;;;9.02;5.45;;;17.60;99.90;;;;;;5032672;28;20029;-54
2022/07/04 00:51:23;;;;;;;15.80;4.97;;;17.50;99.90;;;;;;5031510;28;20030;-53
2022/07/04 00:53:50;;;;;;;11.93;4.40;;;17.50;99.90;;;;;;5031880;28;20029;-54
2022/07/04 00:56:16;;;;;;;9.00;4.35;;;17.40;99.90;;;;;;5041451;28;20360;-53
2022/07/04 00:58:41;;;;;;;7.70;3.50;;;17.40;99.90;;;;;;5050950;28;20356;-54
2022/07/04 01:01:07;;;;;;;13.80;4.63;;;17.40;99.90;;;;;;5049470;28;20494;-55
2022/07/04 01:03:33;;;;;;;7.93;4.32;;;17.40;99.90;;;;;;5051876;28;20052;-50
2022/07/04 01:06:00;;;;;;;8.85;4.10;;;17.30;99.90;;;;;;5050870;28;20046;-53
2022/07/04 01:08:26;;;;;;;25.23;4.68;;;17.40;99.90;;;;;;5050949;28;20021;-54
2022/07/04 01:10:52;;;;;;;19.65;4.22;;;17.40;99.90;;;;;;5042504;28;20025;-54
2022/07/04 01:13:22;;;;;;;27.67;4.07;;;17.30;99.90;;;;;;5031676;28;20037;-58
2022/07/04 01:15:48;;;;;;;21.55;5.10;;;17.30;99.90;;;;;;5030059;28;20037;-55
2022/07/04 01:18:14;;;;;;;11.70;5.00;;;17.20;99.90;;;;;;5030278;28;20065;-54
2022/07/04 01:20:39;;;;;;;14.95;4.97;;;17.20;99.90;;;;;;5030578;28;20107;-50
2022/07/04 01:23:05;;;;;;;12.55;3.78;;;17.30;99.90;;;;;;5030690;28;20029;-56
2022/07/04 01:25:32;;;;;;;12.18;4.60;;;17.20;99.90;;;;;;5034434;28;20051;-52
2022/07/04 01:28:00;;;;;;;8.20;4.28;;;17.20;99.90;;;;;;5050485;28;20059;-54
2022/07/04 01:30:26;;;;;;;7.55;4.43;;;17.20;99.90;;;;;;5050148;28;20118;-52
2022/07/04 01:32:53;;;;;;;10.45;4.63;;;17.20;99.90;;;;;;5051169;28;20029;-52
2022/07/04 01:35:19;;;;;;;8.13;4.40;;;17.20;99.90;;;;;;5051086;28;20017;-54
2022/07/04 01:37:45;;;;;;;16.63;4.50;;;17.30;99.90;;;;;;5051246;28;20060;-54
2022/07/04 01:40:12;;;;;;;15.27;5.03;;;17.30;99.90;;;;;;5046897;28;20045;-54
2022/07/04 01:42:38;;;;;;;10.25;4.72;;;17.20;99.90;;;;;;5031119;28;20021;-53
2022/07/04 01:45:04;;;;;;;11.07;4.38;;;17.20;99.90;;;;;;5030297;28;20022;-55
2022/07/04 01:47:30;;;;;;;5.80;4.28;;;17.10;99.90;;;;;;5030395;28;20017;-55
2022/07/04 01:49:56;;;;;;;13.35;4.18;;;17.30;99.90;;;;;;5030521;28;20030;-52
2022/07/04 01:52:21;;;;;;;14.18;4.72;;;17.30;99.90;;;;;;5029303;28;20025;-54
2022/07/04 01:54:47;;;;;;;8.90;4.97;;;17.30;99.90;;;;;;5030974;28;20499;-54
2022/07/04 01:57:13;;;;;;;8.60;4.20;;;17.30;99.90;;;;;;5031048;28;20104;-52
2022/07/04 02:02:24;;;;;;;6.60;4.47;;;17.50;99.90;;;;;;5030769;28;20040;-52
2022/07/04 02:04:50;;;;;;;20.10;4.80;;;17.50;99.90;;;;;;5041644;28;20115;-56
2022/07/04 02:07:16;;;;;;;16.05;5.07;;;17.60;99.90;;;;;;5048004;28;20025;-53
2022/07/04 02:09:42;;;;;;;12.82;5.35;;;17.60;99.90;;;;;;5049702;28;20074;-55
2022/07/04 02:14:52;;;;;;;9.52;3.55;;;17.60;99.90;;;;;;5050576;28;20055;-55
2022/07/04 02:17:18;;;;;;;13.52;4.95;;;17.70;99.90;;;;;;5049478;28;20482;-56
2022/07/04 02:19:44;;;;;;;9.00;4.18;;;17.70;99.90;;;;;;5040835;28;20109;-55
2022/07/04 02:22:10;;;;;;;14.35;4.47;;;17.70;99.90;;;;;;5030475;28;20022;-57
2022/07/04 02:24:36;;;;;;;7.22;4.25;;;17.80;99.90;;;;;;5029619;28;20021;-52
2022/07/04 02:27:02;;;;;;;12.18;4.68;;;17.80;99.90;;;;;;5030480;28;20421;-56
2022/07/04 02:29:28;;;;;;;9.93;4.00;;;17.80;99.90;;;;;;5030294;28;20037;-55
2022/07/04 02:31:53;;;;;;;5.88;4.07;;;17.90;99.90;;;;;;5030166;28;20026;-54
2022/07/04 02:34:19;;;;;;;6.53;3.97;;;17.80;99.90;;;;;;5029837;28;20026;-53
2022/07/04 02:36:45;;;;;;;5.18;3.72;;;17.90;99.90;;;;;;5029766;28;20038;-53
2022/07/04 02:39:11;;;;;;;11.73;4.05;;;18.00;99.90;;;;;;5030207;28;20046;-51
2022/07/04 02:41:37;;;;;;;6.93;4.18;;;18.00;99.90;;;;;;5029058;28;20029;-52
2022/07/04 02:44:02;;;;;;;4.72;4.03;;;18.10;99.90;;;;;;5030223;28;20017;-55
2022/07/04 02:46:28;;;;;;;7.13;4.53;;;18.20;99.90;;;;;;5029082;28;20026;-55
2022/07/04 02:48:54;;;;;;;10.00;4.43;;;18.20;99.90;;;;;;5034443;28;20472;-53
2022/07/04 02:51:20;;;;;;;7.63;3.58;;;18.30;99.90;;;;;;5048772;28;20032;-52
2022/07/04 02:53:46;;;;;;;4.55;4.03;;;18.40;99.90;;;;;;5049821;28;20364;-52
2022/07/04 02:56:12;;;;;;;7.93;3.90;;;18.40;99.90;;;;;;5048962;28;20110;-56
2022/07/04 02:58:37;;;;;;;6.18;3.78;;;18.40;99.90;;;;;;5048902;28;20029;-53
2022/07/04 03:01:03;;;;;;;13.15;3.45;;;18.50;99.90;;;;;;5050109;28;20032;-56
2022/07/04 03:03:29;;;;;;;4.45;2.92;;;18.70;99.90;;;;;;5052623;28;20434;-51
2022/07/04 03:05:54;;;;;;;4.95;3.50;;;18.80;99.90;;;;;;5053811;28;20031;-56
2022/07/04 03:08:20;;;;;;;8.85;3.65;;;18.90;99.90;;;;;;5053650;28;20464;-52
2022/07/04 03:10:46;;;;;;;11.30;3.65;;;18.90;99.90;;;;;;5052980;28;20454;-53
2022/07/04 03:13:11;;;;;;;6.80;3.50;;;18.90;99.90;;;;;;5052627;28;20491;-53
2022/07/04 03:15:37;;;;;;;5.07;4.00;;;19.00;99.90;;;;;;5053059;28;20075;-52
2022/07/04 03:18:03;;;;;;;9.27;3.72;;;19.00;99.90;;;;;;5050372;28;20029;-54
2022/07/04 03:20:28;;;;;;;3.17;2.78;;;19.00;99.90;;;;;;5033221;28;20026;-55
2022/07/04 03:22:54;;;;;;;5.13;2.90;;;19.20;99.90;;;;;;5032456;28;20459;-51
2022/07/04 03:25:21;;;;;;;2.63;2.28;;;19.40;99.90;;;;;;5032628;28;20025;-55
2022/07/04 03:27:47;;;;;;;4.82;2.65;;;19.70;99.90;;;;;;5033514;28;20025;-53
2022/07/04 03:30:13;;;;;;;5.40;2.38;;;19.80;99.90;;;;;;5032536;28;20369;-54
2022/07/04 03:32:38;;;;;;;4.18;2.90;;;19.90;99.90;;;;;;5032640;28;20059;-56
2022/07/04 03:35:05;;;;;;;4.30;2.65;;;20.00;99.90;;;;;;5032763;28;20075;-56
2022/07/04 03:37:31;;;;;;;4.78;2.97;;;20.00;99.90;;;;;;5032026;28;20026;-55
2022/07/04 03:39:57;;;;;;;3.47;2.30;;;20.00;99.90;;;;;;5032898;28;20124;-55
2022/07/04 03:42:22;;;;;;;2.47;2.28;;;20.00;99.90;;;;;;5033316;28;20108;-54
2022/07/04 03:44:48;;;;;;;7.57;2.75;;;20.00;99.90;;;;;;5033311;28;20087;-56
2022/07/04 03:47:14;;;;;;;3.05;2.65;;;19.90;99.90;;;;;;5032342;28;20028;-54
2022/07/04 03:49:40;;;;;;;11.23;2.42;;;19.90;99.90;;;;;;5053993;28;20039;-55
2022/07/04 03:52:06;;;;;;;6.60;2.55;;;19.90;99.90;;;;;;5051358;28;20021;-55
2022/07/04 03:54:32;;;;;;;3.97;3.00;;;19.80;99.90;;;;;;5052150;28;20388;-52
2022/07/04 03:56:58;;;;;;;5.78;3.15;;;19.80;99.90;;;;;;5051784;28;20036;-54
2022/07/04 03:59:23;;;;;;;8.48;3.70;;;19.60;99.90;;;;;;5051803;28;20025;-51
2022/07/04 04:01:49;;;;;;;4.80;3.30;;;19.50;99.90;;;;;;5051846;28;20025;-52
2022/07/04 04:06:59;;;;;;;6.57;2.92;;;19.20;99.90;;;;;;5052040;28;20395;-55
2022/07/04 04:09:25;;;;;;;5.13;3.33;;;19.00;99.90;;;;;;5052518;28;20033;-55
2022/07/04 04:11:51;;;;;;;5.43;3.17;;;19.00;99.90;;;;;;5051349;28;20079;-54
2022/07/04 04:14:17;;;;;;;4.65;3.17;;;18.90;99.90;;;;;;5051483;28;20028;-56
2022/07/04 04:16:43;;;;;;;5.30;2.83;;;18.80;99.90;;;;;;5051112;28;20025;-57
2022/07/04 04:19:10;;;;;;;6.88;3.30;;;18.80;99.90;;;;;;5032298;28;20052;-53
2022/07/04 04:21:36;;;;;;;12.80;3.38;;;18.80;99.90;;;;;;5031136;28;20434;-53
2022/07/04 04:24:02;;;;;;;3.92;3.15;;;18.80;99.90;;;;;;5032363;28;20017;-53
2022/07/04 04:26:29;;;;;;;3.70;3.10;;;18.70;99.90;;;;;;5031945;28;20097;-53
2022/07/04 04:28:54;;;;;;;4.00;3.58;;;18.70;99.90;;;;;;5031790;28;20022;-53
2022/07/04 04:31:20;;;;;;;8.05;3.05;;;18.70;99.90;;;;;;5032005;28;20033;-55
2022/07/04 04:33:46;;;;;;;7.10;3.35;;;18.60;99.90;;;;;;5051079;28;20293;-53
2022/07/04 04:36:12;;;;;;;4.10;2.63;;;18.60;99.90;;;;;;5052107;28;20032;-53
2022/07/04 04:38:37;;;;;;;6.45;3.15;;;18.60;99.90;;;;;;5051270;28;20025;-55
2022/07/04 04:41:03;;;;;;;3.97;2.35;;;18.60;99.90;;;;;;5050900;28;20098;-54
2022/07/04 04:43:29;;;;;;;3.65;2.38;;;18.60;99.90;;;;;;5051117;28;20056;-52
2022/07/04 04:45:55;;;;;;;6.65;3.15;;;18.60;99.90;;;;;;5052284;28;20109;-55
2022/07/04 04:48:20;;;;;;;3.05;2.63;;;18.50;99.90;;;;;;5051276;28;20036;-55
2022/07/04 04:50:46;;;;;;;6.25;2.30;;;18.50;99.90;;;;;;5052042;28;20032;-51
2022/07/04 04:53:12;;;;;;;5.70;2.83;;;18.50;99.90;;;;;;5041992;28;20124;-52
2022/07/04 04:55:39;;;;;;;3.58;2.65;;;18.40;99.90;;;;;;5032070;28;20091;-54
2022/07/04 04:58:04;;;;;;;9.90;3.58;;;18.30;99.90;;;;;;5045113;28;20021;-50
2022/07/04 05:00:30;;;;;;;5.28;2.80;;;18.30;99.90;;;;;;5031800;28;20060;-52
2022/07/04 05:02:56;;;;;;;7.57;3.45;;;18.30;99.90;;;;;;5031970;28;20197;-51
2022/07/04 05:05:22;;;;;;;8.05;3.20;;;18.30;99.90;;;;;;5031740;28;20523;-53
2022/07/04 05:07:48;;;;;;;3.53;2.85;;;18.20;99.90;;;;;;5032848;28;20107;-51
2022/07/04 05:10:15;;;;;;;5.38;3.38;;;18.30;99.90;;;;;;5031972;28;20030;-54
2022/07/04 05:12:41;;;;;;;4.82;3.40;;;18.30;99.90;;;;;;5032676;28;20021;-53
2022/07/04 05:15:08;;;;;;;7.43;3.97;;;18.20;99.90;;;;;;5031705;28;20068;-54
2022/07/04 05:17:33;;;;;;;8.50;4.20;;;18.30;99.90;;;;;;5031532;28;20076;-53
2022/07/04 05:19:59;;;;;;;10.43;3.28;;;18.30;99.90;;;;;;5031565;28;20112;-54
2022/07/04 05:22:25;;;;;;;7.38;3.05;;;18.30;99.90;;;;;;5031506;28;20052;-52
2022/07/04 05:24:50;;;;;;;5.35;3.55;;;18.30;99.90;;;;;;5042555;28;20464;-56
2022/07/04 05:27:16;;;;;;;5.85;3.00;;;18.30;99.90;;;;;;5050211;28;20028;-54
2022/07/04 05:29:42;;;;;;;4.10;3.10;;;18.50;99.90;;;;;;5049931;28;20021;-56
2022/07/04 05:32:08;;;;;;;13.18;3.58;;;18.60;99.90;;;;;;5051361;28;20091;-54
2022/07/04 05:34:34;;;;;;;5.78;3.35;;;18.50;99.90;;;;;;5051214;28;20029;-56
2022/07/04 05:37:00;;;;;;;5.35;3.08;;;18.50;99.90;;;;;;5051163;28;20063;-52
2022/07/04 05:39:25;;;;;;;5.55;3.08;;;18.50;99.90;;;;;;5050975;28;20052;-55
2022/07/04 05:41:51;;;;;;;3.78;3.17;;;18.60;99.90;;;;;;5051154;28;20032;-57
2022/07/04 05:44:17;;;;;;;4.20;3.10;;;18.50;99.90;;;;;;5051404;28;20410;-55
2022/07/04 05:46:42;;;;;;;9.05;3.50;;;18.50;99.90;;;;;;5050935;28;20124;-53
2022/07/04 05:49:08;;;;;;;7.82;4.30;;;18.60;99.90;;;;;;5051027;28;20369;-55
2022/07/04 05:51:34;;;;;;;4.22;2.70;;;18.80;99.90;;;;;;5050848;28;20025;-52
2022/07/04 05:53:59;;;;;;;12.25;3.28;;;19.00;99.90;;;;;;5041508;28;20034;-56
2022/07/04 05:56:25;;;;;;;9.02;2.40;;;19.10;99.90;;;;;;5031085;28;20568;-52
2022/07/04 05:58:52;;;;;;;12.95;2.97;;;19.10;99.90;;;;;;5030947;28;20408;-53
2022/07/04 06:01:18;;;;;;;5.93;3.47;;;19.10;99.90;;;;;;5030716;28;20057;-53
2022/07/04 06:03:44;;;;;;;16.42;3.50;;;19.00;99.90;;;;;;5030761;28;20026;-57
2022/07/04 06:06:09;;;;;;;6.30;3.15;;;19.00;99.90;;;;;;5030729;28;20522;-54
2022/07/04 06:08:35;;;;;;;11.73;2.63;;;19.10;99.90;;;;;;5038209;28;20025;-56
2022/07/04 06:11:03;;;;;;;5.55;2.95;;;19.20;99.90;;;;;;5050013;28;20040;-56
2022/07/04 06:13:29;;;;;;;6.10;3.92;;;19.40;99.90;;;;;;5050510;28;20451;-56
2022/07/04 06:15:55;;;;;;;5.28;3.00;;;19.50;99.90;;;;;;5050595;28;20051;-52
2022/07/04 06:18:21;;;;;;;3.60;2.50;;;19.80;99.90;;;;;;5050451;28;20025;-53
2022/07/04 06:20:47;;;;;;;3.85;2.60;;;20.20;99.90;;;;;;5050383;28;20419;-55
2022/07/04 06:23:12;;;;;;;5.10;2.20;;;20.30;99.90;;;;;;5050557;28;20020;-54
2022/07/04 06:25:38;;;;;;;3.85;3.10;;;20.40;99.90;;;;;;5036283;28;20079;-55
2022/07/04 06:28:04;;;;;;;6.95;3.90;;;20.50;99.90;;;;;;5030472;28;20032;-57
2022/07/04 06:30:30;;;;;;;8.32;3.90;;;20.50;99.90;;;;;;5030598;28;20108;-54
2022/07/04 06:32:57;;;;;;;7.40;4.00;;;20.70;99.90;;;;;;5030482;28;20030;-54
2022/07/04 06:38:15;;;;;;;8.40;3.22;;;20.50;99.90;;;;;;5031704;28;20076;-52
2022/07/04 06:40:42;;;;;;;6.05;3.38;;;20.60;99.90;;;;;;5030157;28;20129;-55
2022/07/04 06:43:07;;;;;;;7.95;3.17;;;20.60;99.90;;;;;;5030467;28;20033;-57
2022/07/04 06:45:33;;;;;;;9.98;3.33;;;20.60;99.90;;;;;;5030295;28;20033;-55
2022/07/04 06:48:00;;;;;;;5.28;3.10;;;20.60;99.90;;;;;;5041904;28;20079;-52
2022/07/04 06:50:26;;;;;;;6.43;2.90;;;20.60;99.90;;;;;;5050114;28;20418;-53
2022/07/04 06:52:52;;;;;;;10.05;2.97;;;20.90;99.90;;;;;;5050321;28;20025;-55
2022/07/04 06:55:18;;;;;;;2.83;2.30;;;21.10;99.90;;;;;;5050907;28;20033;-54
2022/07/04 06:57:43;;;;;;;3.30;2.55;;;21.60;99.90;;;;;;5050063;28;20033;-53
2022/07/04 07:00:10;;;;;;;4.00;2.83;;;21.70;99.90;;;;;;5049954;28;20025;-51
2022/07/04 07:02:37;;;;;;;4.18;2.53;;;21.60;99.90;;;;;;5048048;28;20104;-53
2022/07/04 07:05:03;;;;;;;3.88;2.22;;;21.80;99.90;;;;;;5050274;28;20025;-56
2022/07/04 07:07:30;;;;;;;5.63;1.90;;;21.90;99.90;;;;;;5049844;28;20388;-54
2022/07/04 07:09:56;;;;;;;8.25;2.30;;;21.70;99.90;;;;;;5049978;28;20040;-53
2022/07/04 07:12:22;;;;;;;2.40;2.10;;;22.20;99.90;;;;;;5049713;28;20029;-53
2022/07/04 07:14:49;;;;;;;6.68;2.22;;;22.50;99.90;;;;;;5048635;28;20025;-52
2022/07/04 07:17:16;;;;;;;6.05;2.30;;;22.80;99.90;;;;;;5040983;28;20413;-53
2022/07/04 07:19:42;;;;;;;3.65;2.03;;;22.60;99.90;;;;;;5029871;28;20468;-52
2022/07/04 07:22:09;;;;;;;3.17;2.22;;;22.40;99.90;;;;;;5030017;28;20033;-54
2022/07/04 07:24:35;;;;;;;3.53;2.33;;;22.50;99.90;;;;;;5029821;28;20045;-52
2022/07/04 07:27:01;;;;;;;5.32;1.83;;;22.70;99.90;;;;;;5029947;28;20104;-53
2022/07/04 07:29:26;;;;;;;4.00;2.25;;;23.00;99.90;;;;;;5030045;28;20025;-54
2022/07/04 07:31:52;;;;;;;3.30;1.90;;;23.00;99.90;;;;;;5042368;28;20021;-56
2022/07/04 07:34:18;;;;;;;8.10;3.88;;;22.70;99.90;;;;;;5049716;28;20048;-55
2022/07/04 07:36:43;;;;;;;3.53;1.80;;;22.80;99.90;;;;;;5049659;28;20029;-54
2022/07/04 07:39:09;;;;;;;4.47;2.58;;;22.90;99.90;;;;;;5049405;28;20045;-58
2022/07/04 07:41:35;;;;;;;6.45;2.50;;;22.70;99.90;;;;;;5049025;28;20057;-53
2022/07/04 07:44:01;;;;;;;2.70;1.75;;;22.50;99.90;;;;;;5049642;28;20028;-51
2022/07/04 07:46:26;;;;;;;4.15;2.08;;;22.50;99.90;;;;;;5050318;28;20025;-53
2022/07/04 07:48:53;;;;;;;6.38;2.72;;;22.60;99.90;;;;;;5053235;28;20086;-53
2022/07/04 07:51:18;;;;;;;5.85;2.53;;;22.30;99.90;;;;;;5053028;28;20399;-53
2022/07/04 07:53:44;;;;;;;7.57;3.10;;;22.20;99.90;;;;;;5051019;28;20104;-55
2022/07/04 07:56:10;;;;;;;2.75;2.30;;;22.20;99.90;;;;;;5033532;28;20021;-51
2022/07/04 07:58:35;;;;;;;4.60;2.50;;;22.20;99.90;;;;;;5033161;28;20026;-56
2022/07/04 08:01:04;;;;;;;4.40;2.00;;;22.30;99.90;;;;;;5034158;28;20041;-52
2022/07/04 08:06:51;;;;;;;5.85;1.80;;;22.60;99.90;;;;;;5032622;28;20427;-52
2022/07/04 08:09:17;;;;;;;2.97;1.73;;;23.00;99.90;;;;;;5033514;28;20014;-56
2022/07/04 08:11:43;;;;;;;3.40;2.22;;;23.10;99.90;;;;;;5033847;28;20041;-50
2022/07/04 08:14:09;;;;;;;8.45;2.42;;;23.40;99.90;;;;;;5033846;28;20026;-55
2022/07/04 08:16:34;;;;;;;6.10;2.28;;;23.40;99.90;;;;;;5034916;28;20037;-53
2022/07/04 08:19:01;;;;;;;5.10;2.60;;;23.30;99.90;;;;;;5033447;28;20551;-51
2022/07/04 08:21:27;;;;;;;2.22;1.90;;;23.70;99.90;;;;;;5049226;28;20037;-50
2022/07/04 08:23:53;;;;;;;4.55;2.05;;;23.90;99.90;;;;;;5048464;28;20021;-52
2022/07/04 08:26:19;;;;;;;1.95;1.65;;;24.10;99.90;;;;;;5052934;28;20032;-53
2022/07/04 08:28:45;;;;;;;4.32;2.15;;;24.00;99.90;;;;;;5052390;28;20104;-54
2022/07/04 08:31:11;;;;;;;1.75;1.65;;;23.80;99.90;;;;;;5053134;28;20542;-54
2022/07/04 08:33:37;;;;;;;2.50;1.50;;;23.80;99.90;;;;;;5051937;28;20029;-52
2022/07/04 08:36:03;;;;;;;3.55;2.00;;;23.80;99.90;;;;;;5052901;28;20060;-56
2022/07/04 08:38:29;;;;;;;5.20;2.10;;;24.10;99.90;;;;;;5050688;28;20028;-53
2022/07/04 08:41:01;;;;;;;1.70;1.60;;;24.10;99.90;;;;;;5051728;28;20049;-51
2022/07/04 08:43:28;;;;;;;4.32;1.80;;;24.20;99.90;;;;;;5051688;28;20438;-54
2022/07/04 08:45:54;;;;;;;2.28;2.08;;;24.20;99.90;;;;;;5051533;28;20021;-51
2022/07/04 08:48:25;;;;;;;7.72;2.03;;;24.20;99.90;;;;;;5051927;28;20017;-50
2022/07/04 08:50:59;;;;;;;5.68;1.95;;;24.20;99.90;;;;;;5050128;28;20017;-51
2022/07/04 08:53:29;;;;;;;2.58;1.98;;;24.10;99.90;;;;;;5052436;28;20029;-56
2022/07/04 08:58:42;;;;;;;3.92;1.83;;;24.50;99.90;;;;;;5052376;28;20491;-56
2022/07/04 09:01:19;;;;;;;2.55;1.73;;;24.60;99.90;;;;;;5052863;28;20029;-56
2022/07/04 09:03:45;;;;;;;3.47;1.27;;;24.70;99.90;;;;;;5053494;28;20048;-55
2022/07/04 09:06:12;;;;;;;4.72;1.58;;;24.90;99.90;;;;;;5052343;28;20037;-53
2022/07/04 09:08:39;;;;;;;2.53;1.50;;;24.70;99.90;;;;;;5052526;28;20017;-52
2022/07/04 09:11:05;;;;;;;2.17;1.63;;;24.80;99.90;;;;;;5052521;28;20086;-52
2022/07/04 09:13:31;;;;;;;1.90;1.40;;;25.00;99.90;;;;;;5051202;28;20025;-56
2022/07/04 09:15:57;;;;;;;1.63;1.52;;;24.80;99.90;;;;;;5052754;28;20036;-53
2022/07/04 09:18:31;;;;;;;6.55;1.80;;;25.00;99.90;;;;;;5051645;28;20033;-54
2022/07/04 09:21:04;;;;;;;4.18;2.00;;;25.10;99.90;;;;;;5032457;28;20025;-55
2022/07/04 09:23:32;;;;;;;4.25;1.85;;;25.20;99.90;;;;;;5032290;28;20014;-56
2022/07/04 09:26:21;;;;;;;2.50;1.63;;;25.40;99.90;;;;;;5032088;28;20026;-55
2022/07/04 09:28:52;;;;;;;3.33;2.13;;;25.40;99.90;;;;;;5031530;28;20029;-56
2022/07/04 09:31:26;;;;;;;2.30;1.95;;;25.30;99.90;;;;;;5031710;28;20030;-52
2022/07/04 09:33:54;;;;;;;4.57;2.03;;;25.60;99.90;;;;;;5032013;28;20491;-51
2022/07/04 09:36:23;;;;;;;5.18;2.13;;;26.00;99.90;;;;;;5031852;28;20116;-54
2022/07/04 09:39:11;;;;;;;2.10;1.50;;;26.10;99.90;;;;;;5034574;28;20032;-53
2022/07/04 09:41:58;;;;;;;2.28;1.77;;;26.10;99.90;;;;;;5051874;28;20037;-52
2022/07/04 09:44:26;;;;;;;1.75;1.48;;;26.20;99.90;;;;;;5050794;28;20032;-53
2022/07/04 09:46:52;;;;;;;2.97;1.95;;;26.00;99.90;;;;;;5050656;28;20454;-52
2022/07/04 09:49:19;;;;;;;8.48;1.90;;;25.60;99.90;;;;;;5050594;28;20017;-55
2022/07/04 09:51:50;;;;;;;3.88;1.95;;;25.30;99.90;;;;;;5050004;28;20055;-55
2022/07/04 09:54:16;;;;;;;2.25;2.05;;;25.20;99.90;;;;;;5050531;28;20384;-50
2022/07/04 09:56:51;;;;;;;5.88;1.80;;;25.40;99.90;;;;;;5050873;28;20025;-52
2022/07/04 09:59:17;;;;;;;2.15;1.77;;;25.40;99.90;;;;;;5050857;28;20352;-51
2022/07/04 10:01:43;;;;;;;3.00;2.00;;;26.00;99.90;;;;;;5049145;28;20396;-51
2022/07/04 10:04:09;;;;;;;2.60;1.50;;;26.60;99.90;;;;;;5050974;28;20033;-52
2022/07/04 10:06:38;;;;;;;2.33;1.73;;;27.00;99.90;;;;;;5050544;28;20448;-52
2022/07/04 10:09:11;;;;;;;5.07;1.88;;;27.30;99.90;;;;;;5041781;28;20532;-52
2022/07/04 10:11:39;;;;;;;2.17;1.65;;;27.00;99.90;;;;;;5041295;28;20025;-54
2022/07/04 10:14:09;;;;;;;2.10;1.50;;;27.20;99.90;;;;;;5051708;28;20040;-53
2022/07/04 10:16:36;;;;;;;2.33;1.40;;;27.40;98.60;;;;;;5040671;28;20025;-56
2022/07/04 10:19:02;;;;;;;7.22;1.38;;;27.20;98.80;;;;;;5042133;28;20029;-54
2022/07/04 10:21:29;;;;;;;4.70;1.88;;;26.50;99.90;;;;;;5040228;28;20048;-57
2022/07/04 10:23:55;;;;;;;5.72;1.40;;;26.60;99.90;;;;;;5040674;28;20029;-55
2022/07/04 10:26:22;;;;;;;2.20;1.60;;;26.40;99.40;;;;;;5040488;28;20079;-52
2022/07/04 10:28:51;;;;;;;4.57;1.77;;;26.40;99.50;;;;;;5040075;28;20029;-56
2022/07/04 10:31:18;;;;;;;1.55;1.45;;;26.60;98.60;;;;;;5039944;28;20041;-55
2022/07/04 10:33:45;;;;;;;5.07;1.63;;;27.10;99.10;;;;;;5040724;28;20476;-52
2022/07/04 10:36:16;;;;;;;1.52;1.33;;;27.70;97.30;;;;;;5040758;28;20123;-54
2022/07/04 10:38:54;;;;;;;3.85;1.45;;;28.10;98.30;;;;;;5040552;28;20712;-54
2022/07/04 10:41:22;;;;;;;4.38;1.35;;;28.30;97.30;;;;;;5040043;28;20037;-52
2022/07/04 10:43:48;;;;;;;3.20;1.70;;;28.00;96.50;;;;;;5039504;28;20032;-55
2022/07/04 10:46:14;;;;;;;4.10;1.52;;;27.90;97.30;;;;;;5040472;28;20037;-56
2022/07/04 10:48:55;;;;;;;1.50;1.13;;;28.20;96.20;;;;;;5040327;28;20025;-53
2022/07/04 10:51:45;;;;;;;4.18;1.45;;;28.40;97.00;;;;;;5040419;28;20025;-55
2022/07/04 10:54:15;;;;;;;3.38;1.58;;;28.30;96.60;;;;;;5040844;28;20504;-52
2022/07/04 10:56:54;;;;;;;3.60;1.38;;;28.10;97.00;;;;;;5040118;28;20075;-52
2022/07/04 10:59:29;;;;;;;3.28;1.48;;;27.60;96.40;;;;;;5040240;28;20480;-53
2022/07/04 11:02:22;;;;;;;3.03;1.48;;;27.20;97.50;;;;;;5039805;28;20037;-56
2022/07/04 11:05:03;;;;;;;2.00;1.30;;;27.50;97.20;;;;;;5040342;28;20079;-54
2022/07/04 11:07:37;;;;;;;2.70;1.60;;;27.20;96.80;;;;;;5040822;28;20271;-53
2022/07/04 11:10:12;;;;;;;3.17;1.25;;;27.50;98.70;;;;;;5040589;28;20037;-55
2022/07/04 11:12:56;;;;;;;1.77;1.63;;;27.40;97.30;;;;;;5039945;28;20029;-54
2022/07/04 11:15:28;;;;;;;1.77;1.33;;;27.40;98.30;;;;;;5040560;28;20032;-55
2022/07/04 11:18:02;;;;;;;1.58;1.35;;;26.90;96.70;;;;;;5039128;28;20555;-51
2022/07/04 11:20:31;;;;;;;1.80;1.70;;;26.80;97.90;;;;;;5039212;28;20056;-55
2022/07/04 11:23:24;;;;;;;3.25;1.92;;;27.00;97.10;;;;;;5042224;28;20025;-55
2022/07/04 11:25:52;;;;;;;2.22;1.63;;;26.60;97.60;;;;;;5043159;28;20408;-52
2022/07/04 11:28:22;;;;;;;1.92;1.58;;;26.50;97.50;;;;;;5046841;28;20464;-56
2022/07/04 11:30:53;;;;;;;3.40;1.30;;;26.70;97.50;;;;;;5054322;28;20044;-56
2022/07/04 11:33:21;;;;;;;1.98;1.30;;;26.40;95.30;;;;;;5054489;28;20032;-53
2022/07/04 11:36:08;;;;;;;2.47;1.95;;;25.90;96.10;;;;;;5053982;28;20433;-57
2022/07/04 11:39:04;;;;;;;3.30;1.50;;;25.80;96.30;;;;;;5054710;28;20079;-52
2022/07/04 11:47:08;;;;;;;5.03;1.80;;;25.10;96.30;;;;;;5054552;28;20040;-53
2022/07/04 11:49:35;;;;;;;1.60;1.50;;;24.80;96.80;;;;;;5054265;28;20051;-55
2022/07/04 11:52:01;;;;;;;7.65;2.38;;;24.60;97.10;;;;;;5054336;28;20033;-53
2022/07/04 11:54:27;;;;;;;2.90;1.75;;;24.50;97.70;;;;;;5054378;28;20116;-52
2022/07/04 11:57:07;;;;;;;6.75;2.08;;;24.60;98.30;;;;;;5043463;28;20068;-53
2022/07/04 11:59:33;;;;;;;5.72;2.55;;;24.40;98.30;;;;;;5034152;28;20317;-55
2022/07/04 12:02:13;;;;;;;5.00;2.10;;;24.30;98.70;;;;;;5034369;28;20087;-55
2022/07/04 12:04:41;;;;;;;2.97;1.90;;;24.40;99.40;;;;;;5034013;28;20022;-55
2022/07/04 12:07:11;;;;;;;2.60;1.98;;;24.50;99.30;;;;;;5034387;28;20136;-55
2022/07/04 12:09:38;;;;;;;3.78;2.10;;;24.60;99.00;;;;;;5034217;28;20099;-55
2022/07/04 12:12:04;;;;;;;7.18;2.42;;;24.60;99.90;;;;;;5048363;28;20108;-53
2022/07/04 12:14:29;;;;;;;10.10;2.33;;;24.70;99.50;;;;;;5053577;28;20115;-55
2022/07/04 12:17:19;;;;;;;3.47;1.92;;;24.90;98.90;;;;;;5052036;28;20033;-55
2022/07/04 12:19:56;;;;;;;2.72;1.98;;;25.00;98.40;;;;;;5053919;28;20025;-52
2022/07/04 12:22:33;;;;;;;5.28;3.15;;;25.40;98.70;;;;;;5052908;28;20025;-52
2022/07/04 12:25:00;;;;;;;5.93;1.98;;;25.20;98.20;;;;;;5052449;28;20020;-50
2022/07/04 12:27:27;;;;;;;3.72;2.33;;;25.40;98.60;;;;;;5052502;28;20052;-53
2022/07/04 12:29:54;;;;;;;8.00;2.42;;;25.60;98.00;;;;;;5053462;28;20116;-56
2022/07/04 12:32:20;;;;;;;6.22;2.50;;;25.60;99.40;;;;;;5033408;28;20037;-57
2022/07/04 12:34:46;;;;;;;4.05;2.15;;;25.80;99.10;;;;;;5032161;28;20040;-53
2022/07/04 12:37:14;;;;;;;3.53;2.10;;;25.70;99.00;;;;;;5030952;28;20037;-50
2022/07/04 12:39:43;;;;;;;4.32;2.55;;;25.60;98.00;;;;;;5032149;28;20045;-54
2022/07/04 12:42:10;;;;;;;5.80;2.70;;;25.40;99.10;;;;;;5032207;28;20477;-53
2022/07/04 12:44:37;;;;;;;7.40;1.95;;;25.40;99.90;;;;;;5032065;28;20476;-56
2022/07/04 12:47:07;;;;;;;2.33;1.60;;;25.40;99.90;;;;;;5032019;28;20025;-50
2022/07/04 12:49:33;;;;;;;8.40;2.17;;;25.30;99.70;;;;;;5032107;28;20075;-52
2022/07/04 12:52:10;;;;;;;3.72;2.38;;;25.20;99.90;;;;;;5032376;28;20037;-52
2022/07/04 12:54:36;;;;;;;2.50;2.10;;;24.90;99.90;;;;;;5032019;28;20104;-51
2022/07/04 12:57:09;;;;;;;5.38;1.90;;;25.00;99.90;;;;;;5031992;28;20032;-50
2022/07/04 12:59:35;;;;;;;6.47;1.90;;;25.10;99.90;;;;;;5031739;28;20025;-52
2022/07/04 13:02:01;;;;;;;2.65;1.98;;;24.90;99.90;;;;;;5033371;28;20083;-52
2022/07/04 13:04:27;;;;;;;7.13;2.28;;;24.60;99.90;;;;;;5030475;28;20480;-52
2022/07/04 13:06:53;;;;;;;5.05;2.65;;;24.50;99.90;;;;;;5052374;28;20025;-52
2022/07/04 13:09:18;;;;;;;2.72;2.22;;;24.50;99.90;;;;;;5051548;28;20078;-52